Monday, October 15, 2018, 5:10 AM EDT
Back to Local

KSLK, Adirondack Regional Airport

Location: Saranac Lake, NY, United States Lat: 44.4
Local Time: 5:10 AM EDT ( 9:10 GMT) Lon: -74.2
Time Zone: US/Eastern Elev: 1663 ft

Show me the last for .
Show Coded

Time T Td Feel RH Dir Speed Gust Alt SLP Vis Weather Sky Remarks
2018-10-15 04:51 27 27 23 100 30° 3 - 30.05 30.09 10 CLR None
2018-10-15 03:51 27 27 - 100 - Calm - 30.07 30.10 10 CLR None
2018-10-15 02:51 29 28 - 96 - Calm - 30.08 30.12 10 CLR None
2018-10-15 01:51 28 28 - 100 - Calm - 30.10 30.14 10 CLR 6-hr Min Temp (2am): 28.0°F
6-hr Max Temp (2am): 36.0°F
2018-10-15 00:51 29 29 - 100 - Calm - 30.12 30.16 10 CLR 24-hr Min Temp (1am): 28.0°F
24-hr Max Temp (1am): 52.0°F
2018-10-14 23:51 30 30 - 100 - Calm - 30.12 30.16 10 CLR None
2018-10-14 22:51 31 30 - 96 - Calm - 30.14 30.18 10 CLR None
2018-10-14 21:51 31 31 - 100 - Calm - 30.13 30.18 10 CLR None
2018-10-14 20:51 33 32 - 95 - Calm - 30.13 30.18 10 CLR None
2018-10-14 19:51 36 35 - 96 - Calm - 30.12 30.17 10 CLR 6-hr Min Temp (8pm): 36.0°F
6-hr Max Temp (8pm): 52.0°F
2018-10-14 18:51 41 37 - 85 - Calm - 30.11 30.16 10 CLR None
2018-10-14 17:51 48 33 45 56 230° 6 - 30.11 30.14 10 CLR None
2018-10-14 16:51 51 31 - 45 250° 7 - 30.12 30.15 10 CLR None
2018-10-14 15:51 52 29 - 40 200° 10 - 30.11 30.14 10 CLR None
2018-10-14 14:51 50 26 43 39 230° 10 21 30.11 30.14 10 CLR None
2018-10-14 13:51 50 30 48 45 250° 6 - 30.12 30.15 10 FEW120 6-hr Min Temp (2pm): 30.9°F
6-hr Max Temp (2pm): 51.1°F
2018-10-14 12:51 48 32 43 53 210° 10 - 30.14 30.17 10 CLR None
2018-10-14 11:51 45 32 40 60 230° 9 - 30.14 30.17 10 CLR None
2018-10-14 10:51 42 33 35 70 190° 13 - 30.13 30.17 10 SCT024 None
2018-10-14 10:40 42 33 37 70 230° 9 - 30.13 - 10 BKN024 None
2018-10-14 09:51 40 34 36 79 260° 6 - 30.12 30.16 10 CLR None
2018-10-14 08:51 36 35 33 96 230° 3 - 30.12 30.16 10 FEW007 None
2018-10-14 08:20 32 32 29 100 230° 3 - 30.12 - 10 FEW005 None
2018-10-14 07:51 32 32 26 100 230° 6 - 30.10 30.15 10 CLR 24-hr Precip Total (8am): 0.03"
6-hr Min Temp (8am): 30.0°F
6-hr Max Temp (8am): 37.9°F
2018-10-14 06:51 32 32 26 100 230° 6 - 30.09 30.13 10 SCT037 None
2018-10-14 05:51 32 31 25 95 220° 8 - 30.08 30.12 10 CLR None

Support USWX by starting your Amazon purchase here.